sensor_id;sensor_type;location;lat;lon;timestamp;pressure;altitude;pressure_sealevel;temperature
61595;BMP280;47397;48.194;11.632;2023-02-01T00:00:09;96470.31;;;4.02
61595;BMP280;47397;48.194;11.632;2023-02-01T00:01:10;96469.47;;;4.02
61595;BMP280;47397;48.194;11.632;2023-02-01T00:02:11;96480.38;;;4.04
61595;BMP280;47397;48.194;11.632;2023-02-01T00:03:11;96472.03;;;4.05
61595;BMP280;47397;48.194;11.632;2023-02-01T00:04:11;96468.66;;;4.06
61595;BMP280;47397;48.194;11.632;2023-02-01T00:05:13;96466.22;;;4.09
61595;BMP280;47397;48.194;11.632;2023-02-01T00:06:13;96474.56;;;4.08
61595;BMP280;47397;48.194;11.632;2023-02-01T00:07:14;96475.44;;;4.10
61595;BMP280;47397;48.194;11.632;2023-02-01T00:08:14;96464.53;;;4.10
61595;BMP280;47397;48.194;11.632;2023-02-01T00:09:16;96480.44;;;4.08
61595;BMP280;47397;48.194;11.632;2023-02-01T00:10:17;96467.91;;;4.10
61595;BMP280;47397;48.194;11.632;2023-02-01T00:11:17;96472.09;;;4.10
61595;BMP280;47397;48.194;11.632;2023-02-01T00:12:18;96469.59;;;4.13
61595;BMP280;47397;48.194;11.632;2023-02-01T00:13:18;96468.75;;;4.12
61595;BMP280;47397;48.194;11.632;2023-02-01T00:14:19;96469.59;;;4.13
61595;BMP280;47397;48.194;11.632;2023-02-01T00:15:19;96472.94;;;4.10
61595;BMP280;47397;48.194;11.632;2023-02-01T00:16:21;96471.28;;;4.12
61595;BMP280;47397;48.194;11.632;2023-02-01T00:17:22;96471.28;;;4.12
61595;BMP280;47397;48.194;11.632;2023-02-01T00:18:22;96475.47;;;4.13
61595;BMP280;47397;48.194;11.632;2023-02-01T00:19:23;96469.63;;;4.16
61595;BMP280;47397;48.194;11.632;2023-02-01T00:20:23;96473.84;;;4.17
61595;BMP280;47397;48.194;11.632;2023-02-01T00:21:23;96472.97;;;4.13
61595;BMP280;47397;48.194;11.632;2023-02-01T00:22:24;96475.50;;;4.15
61595;BMP280;47397;48.194;11.632;2023-02-01T00:23:25;96473.78;;;4.12
61595;BMP280;47397;48.194;11.632;2023-02-01T00:24:27;96470.50;;;4.18
61595;BMP280;47397;48.194;11.632;2023-02-01T00:25:27;96478.81;;;4.11
61595;BMP280;47397;48.194;11.632;2023-02-01T00:26:31;96462.06;;;4.11
61595;BMP280;47397;48.194;11.632;2023-02-01T00:27:32;96471.28;;;4.12
61595;BMP280;47397;48.194;11.632;2023-02-01T00:28:33;96469.63;;;4.14
61595;BMP280;47397;48.194;11.632;2023-02-01T00:29:33;96466.28;;;4.15
61595;BMP280;47397;48.194;11.632;2023-02-01T00:30:33;96467.94;;;4.13
61595;BMP280;47397;48.194;11.632;2023-02-01T00:31:34;96461.19;;;4.09
61595;BMP280;47397;48.194;11.632;2023-02-01T00:32:35;96464.63;;;4.17
61595;BMP280;47397;48.194;11.632;2023-02-01T00:33:35;96467.13;;;4.16
61595;BMP280;47397;48.194;11.632;2023-02-01T00:34:36;96463.72;;;4.12
61595;BMP280;47397;48.194;11.632;2023-02-01T00:35:36;96463.72;;;4.12
61595;BMP280;47397;48.194;11.632;2023-02-01T00:36:37;96460.34;;;4.10
61595;BMP280;47397;48.194;11.632;2023-02-01T00:37:37;96462.88;;;4.10
61595;BMP280;47397;48.194;11.632;2023-02-01T00:38:38;96462.88;;;4.12
61595;BMP280;47397;48.194;11.632;2023-02-01T00:39:39;96449.38;;;4.05
61595;BMP280;47397;48.194;11.632;2023-02-01T00:40:40;96467.91;;;4.10
61595;BMP280;47397;48.194;11.632;2023-02-01T00:41:40;96458.69;;;4.12
61595;BMP280;47397;48.194;11.632;2023-02-01T00:42:41;96453.66;;;4.09
61595;BMP280;47397;48.194;11.632;2023-02-01T00:43:42;96468.75;;;4.09
61595;BMP280;47397;48.194;11.632;2023-02-01T00:44:42;96459.50;;;4.10
61595;BMP280;47397;48.194;11.632;2023-02-01T00:45:43;96457.03;;;4.11
61595;BMP280;47397;48.194;11.632;2023-02-01T00:46:45;96450.25;;;4.08
61595;BMP280;47397;48.194;11.632;2023-02-01T00:47:45;96445.19;;;4.05
61595;BMP280;47397;48.194;11.632;2023-02-01T00:48:46;96457.00;;;4.10
61595;BMP280;47397;48.194;11.632;2023-02-01T00:49:46;96446.88;;;4.06
61595;BMP280;47397;48.194;11.632;2023-02-01T00:50:46;96456.06;;;4.03
61595;BMP280;47397;48.194;11.632;2023-02-01T00:51:47;96438.38;;;3.94
61595;BMP280;47397;48.194;11.632;2023-02-01T00:52:47;96454.31;;;3.96
61595;BMP280;47397;48.194;11.632;2023-02-01T00:53:48;96454.28;;;3.93
61595;BMP280;47397;48.194;11.632;2023-02-01T00:54:50;96443.41;;;3.94
61595;BMP280;47397;48.194;11.632;2023-02-01T00:55:50;96451.78;;;3.93
61595;BMP280;47397;48.194;11.632;2023-02-01T00:56:51;96440.84;;;3.91
61595;BMP280;47397;48.194;11.632;2023-02-01T00:57:51;96437.34;;;3.76
61595;BMP280;47397;48.194;11.632;2023-02-01T00:58:51;96442.44;;;3.81
61595;BMP280;47397;48.194;11.632;2023-02-01T00:59:52;96448.34;;;3.85
61595;BMP280;47397;48.194;11.632;2023-02-01T01:01:01;96445.78;;;3.80
61595;BMP280;47397;48.194;11.632;2023-02-01T01:02:02;96438.94;;;3.71
61595;BMP280;47397;48.194;11.632;2023-02-01T01:03:02;96444.06;;;3.78
61595;BMP280;47397;48.194;11.632;2023-02-01T01:04:02;96440.69;;;3.75
61595;BMP280;47397;48.194;11.632;2023-02-01T01:05:03;96443.97;;;3.71
61595;BMP280;47397;48.194;11.632;2023-02-01T01:06:05;96447.41;;;3.75
61595;BMP280;47397;48.194;11.632;2023-02-01T01:07:06;96437.22;;;3.67
61595;BMP280;47397;48.194;11.632;2023-02-01T01:08:06;96447.28;;;3.67
61595;BMP280;47397;48.194;11.632;2023-02-01T01:09:07;96442.34;;;3.72
61595;BMP280;47397;48.194;11.632;2023-02-01T01:10:10;96447.28;;;3.66
61595;BMP280;47397;48.194;11.632;2023-02-01T01:11:12;96439.88;;;3.78
61595;BMP280;47397;48.194;11.632;2023-02-01T01:12:13;96439.03;;;3.78
61595;BMP280;47397;48.194;11.632;2023-02-01T01:13:13;96439.88;;;3.76
61595;BMP280;47397;48.194;11.632;2023-02-01T01:14:14;96438.25;;;3.83
61595;BMP280;47397;48.194;11.632;2023-02-01T01:15:14;96442.28;;;3.70
61595;BMP280;47397;48.194;11.632;2023-02-01T01:16:16;96437.25;;;3.70
61595;BMP280;47397;48.194;11.632;2023-02-01T01:17:16;96431.47;;;3.76
61595;BMP280;47397;48.194;11.632;2023-02-01T01:18:17;96439.06;;;3.81
61595;BMP280;47397;48.194;11.632;2023-02-01T01:19:17;96435.63;;;3.72
61595;BMP280;47397;48.194;11.632;2023-02-01T01:20:18;96432.28;;;3.72
61595;BMP280;47397;48.194;11.632;2023-02-01T01:21:18;96432.31;;;3.76
61595;BMP280;47397;48.194;11.632;2023-02-01T01:22:18;96438.19;;;3.77
61595;BMP280;47397;48.194;11.632;2023-02-01T01:23:19;96439.84;;;3.75
61595;BMP280;47397;48.194;11.632;2023-02-01T01:24:19;96432.19;;;3.66
61595;BMP280;47397;48.194;11.632;2023-02-01T01:25:21;96439.78;;;3.70
61595;BMP280;47397;48.194;11.632;2023-02-01T01:26:23;96438.91;;;3.68
61595;BMP280;47397;48.194;11.632;2023-02-01T01:27:24;96443.97;;;3.71
61595;BMP280;47397;48.194;11.632;2023-02-01T01:28:24;96437.25;;;3.70
61595;BMP280;47397;48.194;11.632;2023-02-01T01:29:25;96450.66;;;3.69
61595;BMP280;47397;48.194;11.632;2023-02-01T01:30:25;96443.13;;;3.69
61595;BMP280;47397;48.194;11.632;2023-02-01T01:31:26;96443.91;;;3.65
61595;BMP280;47397;48.194;11.632;2023-02-01T01:32:27;96431.31;;;3.62
61595;BMP280;47397;48.194;11.632;2023-02-01T01:33:27;96433.06;;;3.69
61595;BMP280;47397;48.194;11.632;2023-02-01T01:34:28;96426.28;;;3.64
61595;BMP280;47397;48.194;11.632;2023-02-01T01:35:29;96426.25;;;3.61
61595;BMP280;47397;48.194;11.632;2023-02-01T01:36:29;96430.50;;;3.66
61595;BMP280;47397;48.194;11.632;2023-02-01T01:37:30;96429.66;;;3.64
61595;BMP280;47397;48.194;11.632;2023-02-01T01:38:31;96421.31;;;3.68
61595;BMP280;47397;48.194;11.632;2023-02-01T01:39:32;96417.22;;;3.73
61595;BMP280;47397;48.194;11.632;2023-02-01T01:40:33;96424.78;;;3.75
61595;BMP280;47397;48.194;11.632;2023-02-01T01:41:34;96420.50;;;3.69
61595;BMP280;47397;48.194;11.632;2023-02-01T01:42:37;96423.88;;;3.71
61595;BMP280;47397;48.194;11.632;2023-02-01T01:43:49;96413.69;;;3.59
61595;BMP280;47397;48.194;11.632;2023-02-01T01:45:00;96422.97;;;3.65
61595;BMP280;47397;48.194;11.632;2023-02-01T01:46:01;96417.06;;;3.63
61595;BMP280;47397;48.194;11.632;2023-02-01T01:47:02;96408.69;;;3.62
61595;BMP280;47397;48.194;11.632;2023-02-01T01:48:07;96426.22;;;3.56
61595;BMP280;47397;48.194;11.632;2023-02-01T01:49:11;96416.25;;;3.65
61595;BMP280;47397;48.194;11.632;2023-02-01T01:50:15;96407.84;;;3.63
61595;BMP280;47397;48.194;11.632;2023-02-01T01:51:18;96409.47;;;3.57
61595;BMP280;47397;48.194;11.632;2023-02-01T01:52:20;96398.53;;;3.53
61595;BMP280;47397;48.194;11.632;2023-02-01T01:53:24;96399.38;;;3.54
61595;BMP280;47397;48.194;11.632;2023-02-01T01:54:29;96398.50;;;3.50
61595;BMP280;47397;48.194;11.632;2023-02-01T01:55:35;96396.88;;;3.54
61595;BMP280;47397;48.194;11.632;2023-02-01T01:56:37;96402.72;;;3.54
61595;BMP280;47397;48.194;11.632;2023-02-01T01:57:40;96390.97;;;3.52
61595;BMP280;47397;48.194;11.632;2023-02-01T01:58:42;96394.28;;;3.48
61595;BMP280;47397;48.194;11.632;2023-02-01T01:59:47;96388.38;;;3.44
61595;BMP280;47397;48.194;11.632;2023-02-01T02:00:48;96387.59;;;3.48
61595;BMP280;47397;48.194;11.632;2023-02-01T02:01:49;96397.63;;;3.48
61595;BMP280;47397;48.194;11.632;2023-02-01T02:02:54;96392.66;;;3.51
61595;BMP280;47397;48.194;11.632;2023-02-01T02:03:57;96396.81;;;3.48
61595;BMP280;47397;48.194;11.632;2023-02-01T02:04:58;96389.28;;;3.51
61595;BMP280;47397;48.194;11.632;2023-02-01T02:05:58;96383.41;;;3.50
61595;BMP280;47397;48.194;11.632;2023-02-01T02:07:02;96384.19;;;3.43
61595;BMP280;47397;48.194;11.632;2023-02-01T02:08:04;96393.44;;;3.45
61595;BMP280;47397;48.194;11.632;2023-02-01T02:09:04;96385.94;;;3.50
61595;BMP280;47397;48.194;11.632;2023-02-01T02:10:07;96390.09;;;3.47
61595;BMP280;47397;48.194;11.632;2023-02-01T02:11:11;96392.59;;;3.47
61595;BMP280;47397;48.194;11.632;2023-02-01T02:12:12;96389.19;;;3.41
61595;BMP280;47397;48.194;11.632;2023-02-01T02:13:13;96390.00;;;3.39
61595;BMP280;47397;48.194;11.632;2023-02-01T02:14:16;96393.38;;;3.41
61595;BMP280;47397;48.194;11.632;2023-02-01T02:15:17;96392.56;;;3.42
61595;BMP280;47397;48.194;11.632;2023-02-01T02:16:37;96395.00;;;3.36
61595;BMP280;47397;48.194;11.632;2023-02-01T02:17:45;96396.56;;;3.31
61595;BMP280;47397;48.194;11.632;2023-02-01T02:18:59;96399.91;;;3.30
61595;BMP280;47397;48.194;11.632;2023-02-01T02:20:22;96410.75;;;3.26
61595;BMP280;47397;48.194;11.632;2023-02-01T02:21:42;96404.06;;;3.28
61595;BMP280;47397;48.194;11.632;2023-02-01T02:23:08;96411.69;;;3.34
61595;BMP280;47397;48.194;11.632;2023-02-01T02:26:17;96414.13;;;3.28
61595;BMP280;47397;48.194;11.632;2023-02-01T02:27:23;96427.66;;;3.36
61595;BMP280;47397;48.194;11.632;2023-02-01T02:28:56;96419.22;;;3.34
61595;BMP280;47397;48.194;11.632;2023-02-01T02:30:33;96430.13;;;3.34
61595;BMP280;47397;48.194;11.632;2023-02-01T02:31:45;96421.69;;;3.31
61595;BMP280;47397;48.194;11.632;2023-02-01T02:33:19;96427.66;;;3.36
61595;BMP280;47397;48.194;11.632;2023-02-01T02:34:26;96422.50;;;3.27
61595;BMP280;47397;48.194;11.632;2023-02-01T02:35:33;96435.91;;;3.29
61595;BMP280;47397;48.194;11.632;2023-02-01T02:36:44;96420.81;;;3.26
61595;BMP280;47397;48.194;11.632;2023-02-01T02:37:54;96420.88;;;3.32
61595;BMP280;47397;48.194;11.632;2023-02-01T02:39:00;96420.03;;;3.33
61595;BMP280;47397;48.194;11.632;2023-02-01T02:40:09;96415.00;;;3.30
61595;BMP280;47397;48.194;11.632;2023-02-01T02:41:15;96412.59;;;3.37
61595;BMP280;47397;48.194;11.632;2023-02-01T02:42:26;96413.44;;;3.38
61595;BMP280;47397;48.194;11.632;2023-02-01T02:43:33;96410.09;;;3.39
61595;BMP280;47397;48.194;11.632;2023-02-01T02:44:42;96417.56;;;3.34
61595;BMP280;47397;48.194;11.632;2023-02-01T02:45:49;96406.72;;;3.37
61595;BMP280;47397;48.194;11.632;2023-02-01T02:46:52;96402.47;;;3.34
61595;BMP280;47397;48.194;11.632;2023-02-01T02:48:00;96400.88;;;3.38
61595;BMP280;47397;48.194;11.632;2023-02-01T02:49:10;96402.47;;;3.34
61595;BMP280;47397;48.194;11.632;2023-02-01T02:50:17;96401.59;;;3.29
61595;BMP280;47397;48.194;11.632;2023-02-01T02:51:22;96395.75;;;3.32
61595;BMP280;47397;48.194;11.632;2023-02-01T02:52:24;96387.34;;;3.30
61595;BMP280;47397;48.194;11.632;2023-02-01T02:53:28;96398.28;;;3.33
61595;BMP280;47397;48.194;11.632;2023-02-01T02:54:32;96391.63;;;3.35
61595;BMP280;47397;48.194;11.632;2023-02-01T02:55:37;96386.53;;;3.32
61595;BMP280;47397;48.194;11.632;2023-02-01T02:56:39;96389.03;;;3.31
61595;BMP280;47397;48.194;11.632;2023-02-01T02:57:41;96380.69;;;3.33
61595;BMP280;47397;48.194;11.632;2023-02-01T02:58:43;96381.59;;;3.37
61595;BMP280;47397;48.194;11.632;2023-02-01T02:59:47;96384.94;;;3.36
61595;BMP280;47397;48.194;11.632;2023-02-01T03:00:49;96384.97;;;3.39
61595;BMP280;47397;48.194;11.632;2023-02-01T03:01:50;96382.44;;;3.36
61595;BMP280;47397;48.194;11.632;2023-02-01T03:02:51;96377.31;;;3.31
61595;BMP280;47397;48.194;11.632;2023-02-01T03:03:52;96378.25;;;3.38
61595;BMP280;47397;48.194;11.632;2023-02-01T03:04:54;96385.69;;;3.32
61595;BMP280;47397;48.194;11.632;2023-02-01T03:05:55;96382.38;;;3.34
61595;BMP280;47397;48.194;11.632;2023-02-01T03:06:56;96377.44;;;3.39
61595;BMP280;47397;48.194;11.632;2023-02-01T03:08:02;96377.47;;;3.40
61595;BMP280;47397;48.194;11.632;2023-02-01T03:09:05;96375.84;;;3.45
61595;BMP280;47397;48.194;11.632;2023-02-01T03:10:17;96369.94;;;3.42
61595;BMP280;47397;48.194;11.632;2023-02-01T03:11:18;96373.31;;;3.45
61595;BMP280;47397;48.194;11.632;2023-02-01T03:12:18;96369.94;;;3.43
61595;BMP280;47397;48.194;11.632;2023-02-01T03:13:26;96372.47;;;3.45
61595;BMP280;47397;48.194;11.632;2023-02-01T03:14:28;96368.25;;;3.41
61595;BMP280;47397;48.194;11.632;2023-02-01T03:15:36;96373.28;;;3.41
61595;BMP280;47397;48.194;11.632;2023-02-01T03:16:41;96362.44;;;3.45
61595;BMP280;47397;48.194;11.632;2023-02-01T03:17:43;96367.47;;;3.48
61595;BMP280;47397;48.194;11.632;2023-02-01T03:18:49;96369.97;;;3.47
61595;BMP280;47397;48.194;11.632;2023-02-01T03:19:51;96371.66;;;3.48
61595;BMP280;47397;48.194;11.632;2023-02-01T03:20:55;96359.09;;;3.46
61595;BMP280;47397;48.194;11.632;2023-02-01T03:21:58;96372.47;;;3.43
61595;BMP280;47397;48.194;11.632;2023-02-01T03:22:59;96362.44;;;3.45
61595;BMP280;47397;48.194;11.632;2023-02-01T03:24:02;96368.34;;;3.50
61595;BMP280;47397;48.194;11.632;2023-02-01T03:25:07;96368.28;;;3.44
61595;BMP280;47397;48.194;11.632;2023-02-01T03:26:11;96364.16;;;3.49
61595;BMP280;47397;48.194;11.632;2023-02-01T03:27:18;96365.81;;;3.49
61595;BMP280;47397;48.194;11.632;2023-02-01T03:28:23;96367.47;;;3.48
61595;BMP280;47397;48.194;11.632;2023-02-01T03:29:29;96362.50;;;3.51
61595;BMP280;47397;48.194;11.632;2023-02-01T03:30:34;96374.25;;;3.55
61595;BMP280;47397;48.194;11.632;2023-02-01T03:31:36;96365.03;;;3.54
61595;BMP280;47397;48.194;11.632;2023-02-01T03:32:38;96368.31;;;3.49
61595;BMP280;47397;48.194;11.632;2023-02-01T03:33:40;96373.31;;;3.45
61595;BMP280;47397;48.194;11.632;2023-02-01T03:34:40;96368.34;;;3.50
61595;BMP280;47397;48.194;11.632;2023-02-01T03:35:48;96361.69;;;3.55
61595;BMP280;47397;48.194;11.632;2023-02-01T03:36:55;96370.94;;;3.58
61595;BMP280;47397;48.194;11.632;2023-02-01T03:38:02;96374.28;;;3.58
61595;BMP280;47397;48.194;11.632;2023-02-01T03:39:07;96361.72;;;3.58
61595;BMP280;47397;48.194;11.632;2023-02-01T03:40:11;96357.53;;;3.59
61595;BMP280;47397;48.194;11.632;2023-02-01T03:41:17;96359.25;;;3.61
61595;BMP280;47397;48.194;11.632;2023-02-01T03:42:24;96355.06;;;3.62
61595;BMP280;47397;48.194;11.632;2023-02-01T03:43:29;96352.53;;;3.62
61595;BMP280;47397;48.194;11.632;2023-02-01T03:44:34;96343.34;;;3.62
61595;BMP280;47397;48.194;11.632;2023-02-01T03:45:37;96354.19;;;3.58
61595;BMP280;47397;48.194;11.632;2023-02-01T03:46:41;96356.75;;;3.64
61595;BMP280;47397;48.194;11.632;2023-02-01T03:47:45;96355.06;;;3.63
61595;BMP280;47397;48.194;11.632;2023-02-01T03:48:48;96358.44;;;3.65
61595;BMP280;47397;48.194;11.632;2023-02-01T03:49:52;96339.19;;;3.66
61595;BMP280;47397;48.194;11.632;2023-02-01T03:50:56;96365.13;;;3.63
61595;BMP280;47397;48.194;11.632;2023-02-01T03:52:00;96359.31;;;3.67
61595;BMP280;47397;48.194;11.632;2023-02-01T03:53:04;96355.94;;;3.67
61595;BMP280;47397;48.194;11.632;2023-02-01T03:54:06;96360.97;;;3.67
61595;BMP280;47397;48.194;11.632;2023-02-01T03:55:10;96363.50;;;3.68
61595;BMP280;47397;48.194;11.632;2023-02-01T03:56:11;96363.50;;;3.68
61595;BMP280;47397;48.194;11.632;2023-02-01T03:57:13;96363.50;;;3.68
61595;BMP280;47397;48.194;11.632;2023-02-01T03:58:16;96350.94;;;3.68
61595;BMP280;47397;48.194;11.632;2023-02-01T03:59:18;96354.38;;;3.73
61595;BMP280;47397;48.194;11.632;2023-02-01T04:00:20;96351.78;;;3.70
61595;BMP280;47397;48.194;11.632;2023-02-01T04:01:21;96351.84;;;3.72
61595;BMP280;47397;48.194;11.632;2023-02-01T04:02:21;96352.63;;;3.71
61595;BMP280;47397;48.194;11.632;2023-02-01T04:03:22;96352.69;;;3.72
61595;BMP280;47397;48.194;11.632;2023-02-01T04:04:22;96347.56;;;3.68
61595;BMP280;47397;48.194;11.632;2023-02-01T04:05:23;96353.41;;;3.65
61595;BMP280;47397;48.194;11.632;2023-02-01T04:06:23;96355.13;;;3.69
61595;BMP280;47397;48.194;11.632;2023-02-01T04:07:25;96353.44;;;3.68
61595;BMP280;47397;48.194;11.632;2023-02-01T04:08:26;96355.06;;;3.63
61595;BMP280;47397;48.194;11.632;2023-02-01T04:09:26;96353.44;;;3.67
61595;BMP280;47397;48.194;11.632;2023-02-01T04:10:26;96356.78;;;3.67
61595;BMP280;47397;48.194;11.632;2023-02-01T04:11:27;96364.31;;;3.64
61595;BMP280;47397;48.194;11.632;2023-02-01T04:12:27;96358.44;;;3.64
61595;BMP280;47397;48.194;11.632;2023-02-01T04:13:28;96356.81;;;3.69
61595;BMP280;47397;48.194;11.632;2023-02-01T04:14:28;96356.81;;;3.69
61595;BMP280;47397;48.194;11.632;2023-02-01T04:15:28;96357.63;;;3.66
61595;BMP280;47397;48.194;11.632;2023-02-01T04:16:29;96360.16;;;3.69
61595;BMP280;47397;48.194;11.632;2023-02-01T04:17:30;96354.28;;;3.69
61595;BMP280;47397;48.194;11.632;2023-02-01T04:18:30;96356.03;;;3.73
61595;BMP280;47397;48.194;11.632;2023-02-01T04:19:31;96354.34;;;3.72
61595;BMP280;47397;48.194;11.632;2023-02-01T04:20:31;96369.31;;;3.64
61595;BMP280;47397;48.194;11.632;2023-02-01T04:21:32;96366.81;;;3.66
61595;BMP280;47397;48.194;11.632;2023-02-01T04:22:34;96355.97;;;3.68
61595;BMP280;47397;48.194;11.632;2023-02-01T04:23:34;96360.16;;;3.71
61595;BMP280;47397;48.194;11.632;2023-02-01T04:24:34;96353.44;;;3.68
61595;BMP280;47397;48.194;11.632;2023-02-01T04:25:35;96354.28;;;3.69
61595;BMP280;47397;48.194;11.632;2023-02-01T04:26:35;96358.53;;;3.73
61595;BMP280;47397;48.194;11.632;2023-02-01T04:27:36;96348.44;;;3.71
61595;BMP280;47397;48.194;11.632;2023-02-01T04:28:36;96353.53;;;3.74
61595;BMP280;47397;48.194;11.632;2023-02-01T04:29:36;96353.44;;;3.68
61595;BMP280;47397;48.194;11.632;2023-02-01T04:30:37;96357.63;;;3.66
61595;BMP280;47397;48.194;11.632;2023-02-01T04:31:37;96345.94;;;3.71
61595;BMP280;47397;48.194;11.632;2023-02-01T04:32:38;96349.34;;;3.75
61595;BMP280;47397;48.194;11.632;2023-02-01T04:33:39;96346.81;;;3.73
61595;BMP280;47397;48.194;11.632;2023-02-01T04:34:39;96335.88;;;3.70
61595;BMP280;47397;48.194;11.632;2023-02-01T04:35:40;96340.91;;;3.71
61595;BMP280;47397;48.194;11.632;2023-02-01T04:36:40;96340.94;;;3.73
61595;BMP280;47397;48.194;11.632;2023-02-01T04:37:42;96331.69;;;3.70
61595;BMP280;47397;48.194;11.632;2023-02-01T04:38:42;96341.78;;;3.73
61595;BMP280;47397;48.194;11.632;2023-02-01T04:39:43;96346.84;;;3.76
61595;BMP280;47397;48.194;11.632;2023-02-01T04:40:43;96346.84;;;3.76
61595;BMP280;47397;48.194;11.632;2023-02-01T04:41:43;96336.78;;;3.75
61595;BMP280;47397;48.194;11.632;2023-02-01T04:42:44;96360.16;;;3.69
61595;BMP280;47397;48.194;11.632;2023-02-01T04:43:45;96353.47;;;3.71
61595;BMP280;47397;48.194;11.632;2023-02-01T04:44:45;96360.22;;;3.72
61595;BMP280;47397;48.194;11.632;2023-02-01T04:45:49;96362.66;;;3.69
61595;BMP280;47397;48.194;11.632;2023-02-01T04:46:50;96350.00;;;3.60
61595;BMP280;47397;48.194;11.632;2023-02-01T04:47:50;96356.78;;;3.66
61595;BMP280;47397;48.194;11.632;2023-02-01T04:48:50;96356.81;;;3.70
61595;BMP280;47397;48.194;11.632;2023-02-01T04:49:51;96347.56;;;3.68
61595;BMP280;47397;48.194;11.632;2023-02-01T04:50:51;96351.75;;;3.67
61595;BMP280;47397;48.194;11.632;2023-02-01T04:51:52;96341.69;;;3.67
61595;BMP280;47397;48.194;11.632;2023-02-01T04:52:53;96355.06;;;3.63
61595;BMP280;47397;48.194;11.632;2023-02-01T04:53:54;96354.28;;;3.69
61595;BMP280;47397;48.194;11.632;2023-02-01T04:54:54;96351.75;;;3.67
61595;BMP280;47397;48.194;11.632;2023-02-01T04:55:55;96349.34;;;3.73
61595;BMP280;47397;48.194;11.632;2023-02-01T04:56:55;96347.56;;;3.68
61595;BMP280;47397;48.194;11.632;2023-02-01T04:57:56;96330.84;;;3.71
61595;BMP280;47397;48.194;11.632;2023-02-01T04:58:56;96338.38;;;3.71
61595;BMP280;47397;48.194;11.632;2023-02-01T04:59:56;96333.41;;;3.74
61595;BMP280;47397;48.194;11.632;2023-02-01T05:00:57;96338.38;;;3.70
61595;BMP280;47397;48.194;11.632;2023-02-01T05:01:57;96335.00;;;3.68
61595;BMP280;47397;48.194;11.632;2023-02-01T05:02:58;96338.38;;;3.68
61595;BMP280;47397;48.194;11.632;2023-02-01T05:03:58;96335.00;;;3.66
61595;BMP280;47397;48.194;11.632;2023-02-01T05:04:59;96326.59;;;3.64
61595;BMP280;47397;48.194;11.632;2023-02-01T05:05:59;96331.66;;;3.69
61595;BMP280;47397;48.194;11.632;2023-02-01T05:07:00;96339.28;;;3.73
61595;BMP280;47397;48.194;11.632;2023-02-01T05:08:02;96340.16;;;3.79
61595;BMP280;47397;48.194;11.632;2023-02-01T05:09:02;96331.78;;;3.80
61595;BMP280;47397;48.194;11.632;2023-02-01T05:10:03;96341.78;;;3.72
61595;BMP280;47397;48.194;11.632;2023-02-01T05:11:04;96340.91;;;3.71
61595;BMP280;47397;48.194;11.632;2023-02-01T05:12:05;96343.41;;;3.71
61595;BMP280;47397;48.194;11.632;2023-02-01T05:13:05;96335.88;;;3.71
61595;BMP280;47397;48.194;11.632;2023-02-01T05:14:06;96349.25;;;3.69
61595;BMP280;47397;48.194;11.632;2023-02-01T05:15:07;96345.06;;;3.69
61595;BMP280;47397;48.194;11.632;2023-02-01T05:16:07;96340.94;;;3.73
61595;BMP280;47397;48.194;11.632;2023-02-01T05:17:08;96351.00;;;3.73
61595;BMP280;47397;48.194;11.632;2023-02-01T05:18:08;96352.63;;;3.71
61595;BMP280;47397;48.194;11.632;2023-02-01T05:19:08;96350.16;;;3.72
61595;BMP280;47397;48.194;11.632;2023-02-01T05:20:10;96356.81;;;3.70
61595;BMP280;47397;48.194;11.632;2023-02-01T05:21:10;96347.66;;;3.72
61595;BMP280;47397;48.194;11.632;2023-02-01T05:22:10;96344.25;;;3.70
61595;BMP280;47397;48.194;11.632;2023-02-01T05:23:12;96346.81;;;3.73
61595;BMP280;47397;48.194;11.632;2023-02-01T05:24:13;96340.03;;;3.69
61595;BMP280;47397;48.194;11.632;2023-02-01T05:25:13;96345.06;;;3.69
61595;BMP280;47397;48.194;11.632;2023-02-01T05:26:13;96346.75;;;3.70
61595;BMP280;47397;48.194;11.632;2023-02-01T05:27:14;96334.19;;;3.69
61595;BMP280;47397;48.194;11.632;2023-02-01T05:28:14;96355.94;;;3.65
61595;BMP280;47397;48.194;11.632;2023-02-01T05:29:16;96360.97;;;3.65
61595;BMP280;47397;48.194;11.632;2023-02-01T05:30:17;96360.13;;;3.66
61595;BMP280;47397;48.194;11.632;2023-02-01T05:31:18;96358.47;;;3.68
61595;BMP280;47397;48.194;11.632;2023-02-01T05:32:18;96355.13;;;3.69
61595;BMP280;47397;48.194;11.632;2023-02-01T05:33:19;96364.34;;;3.69
61595;BMP280;47397;48.194;11.632;2023-02-01T05:34:19;96369.34;;;3.67
61595;BMP280;47397;48.194;11.632;2023-02-01T05:35:19;96371.00;;;3.65
61595;BMP280;47397;48.194;11.632;2023-02-01T05:36:20;96368.56;;;3.71
61595;BMP280;47397;48.194;11.632;2023-02-01T05:37:20;96362.66;;;3.68
61595;BMP280;47397;48.194;11.632;2023-02-01T05:38:22;96363.50;;;3.67
61595;BMP280;47397;48.194;11.632;2023-02-01T05:39:23;96361.00;;;3.68
61595;BMP280;47397;48.194;11.632;2023-02-01T05:40:23;96355.13;;;3.69
61595;BMP280;47397;48.194;11.632;2023-02-01T05:41:24;96366.03;;;3.71
61595;BMP280;47397;48.194;11.632;2023-02-01T05:42:24;96350.06;;;3.66
61595;BMP280;47397;48.194;11.632;2023-02-01T05:43:24;96353.47;;;3.70
61595;BMP280;47397;48.194;11.632;2023-02-01T05:44:25;96352.59;;;3.68
61595;BMP280;47397;48.194;11.632;2023-02-01T05:45:25;96348.38;;;3.65
61595;BMP280;47397;48.194;11.632;2023-02-01T05:46:26;96339.19;;;3.69
61595;BMP280;47397;48.194;11.632;2023-02-01T05:47:26;96340.94;;;3.73
61595;BMP280;47397;48.194;11.632;2023-02-01T05:48:26;96346.75;;;3.70
61595;BMP280;47397;48.194;11.632;2023-02-01T05:49:27;96341.69;;;3.66
61595;BMP280;47397;48.194;11.632;2023-02-01T05:50:27;96349.28;;;3.70
61595;BMP280;47397;48.194;11.632;2023-02-01T05:51:28;96349.25;;;3.69
61595;BMP280;47397;48.194;11.632;2023-02-01T05:52:28;96351.78;;;3.69
61595;BMP280;47397;48.194;11.632;2023-02-01T05:53:30;96347.59;;;3.69
61595;BMP280;47397;48.194;11.632;2023-02-01T05:54:30;96342.63;;;3.74
61595;BMP280;47397;48.194;11.632;2023-02-01T05:55:31;96340.06;;;3.71
61595;BMP280;47397;48.194;11.632;2023-02-01T05:56:32;96354.38;;;3.73
61595;BMP280;47397;48.194;11.632;2023-02-01T05:57:32;96345.13;;;3.72
61595;BMP280;47397;48.194;11.632;2023-02-01T05:58:32;96349.31;;;3.72
61595;BMP280;47397;48.194;11.632;2023-02-01T05:59:33;96337.59;;;3.72
61595;BMP280;47397;48.194;11.632;2023-02-01T06:00:33;96320.84;;;3.74
61595;BMP280;47397;48.194;11.632;2023-02-01T06:01:34;96335.03;;;3.69